Time;durP1;ratioP1;P1;durP2;ratioP2;P2;SDS_P1;SDS_P2;PMS_P1;PMS_P2;Temp;Humidity;BMP_temperature;BMP_pressure;BME280_temperature;BME280_humidity;BME280_pressure;Samples;Min_cycle;Max_cycle;Signal;HPM_P1;HPM_P2
2023/12/28 00:01:30;;;;;;;3.10;2.23;;;;;;;5.24;92.59;152707.28;4993029;28;20463;-77
2023/12/28 00:03:57;;;;;;;3.00;2.10;;;;;;;5.28;90.41;152717.59;5024929;28;20480;-76
2023/12/28 00:06:23;;;;;;;2.67;2.23;;;;;;;5.34;87.87;152733.06;4990796;28;20488;-76
2023/12/28 00:08:50;;;;;;;2.23;1.70;;;;;;;5.42;86.36;152753.69;4986385;28;20480;-76
2023/12/28 00:11:16;;;;;;;3.97;2.27;;;;;;;5.45;85.44;152761.44;5006128;28;20463;-76
2023/12/28 00:13:43;;;;;;;3.20;1.93;;;;;;;5.46;85.15;152764.00;5003169;28;20492;-76
2023/12/28 00:16:09;;;;;;;2.90;1.70;;;;;;;5.48;87.95;152770.44;5025977;28;20459;-76
2023/12/28 00:18:37;;;;;;;2.93;2.37;;;;;;;5.46;88.71;152765.28;5015981;28;20462;-76
2023/12/28 00:21:04;;;;;;;2.23;2.03;;;;;;;5.42;85.45;152753.69;5016917;28;21349;-76
2023/12/28 00:23:31;;;;;;;2.60;2.00;;;;;;;5.50;84.64;152775.63;5009870;28;20466;-76
2023/12/28 00:25:57;;;;;;;2.80;2.37;;;;;;;5.54;85.42;152785.91;5010337;28;20465;-77
2023/12/28 00:28:24;;;;;;;3.40;2.00;;;;;;;5.55;86.20;152787.22;5000684;28;20476;-76
2023/12/28 00:30:50;;;;;;;2.20;2.00;;;;;;;5.55;83.43;152787.22;5021221;28;20475;-76
2023/12/28 00:33:17;;;;;;;2.13;1.83;;;;;;;5.61;81.20;152802.72;4994023;28;20540;-76
2023/12/28 00:35:45;;;;;;;2.13;1.80;;;;;;;5.65;82.71;152811.69;5011789;28;20460;-77
2023/12/28 00:38:11;;;;;;;2.50;1.97;;;;;;;5.68;82.54;152820.75;4985103;28;20471;-76
2023/12/28 00:40:38;;;;;;;3.33;1.97;;;;;;;5.68;83.37;152820.75;5003739;28;20457;-76
2023/12/28 00:43:04;;;;;;;2.30;2.00;;;;;;;5.70;83.17;152825.88;5022246;28;20460;-76
2023/12/28 00:45:31;;;;;;;3.10;2.43;;;;;;;5.69;86.96;152822.03;5009724;28;20861;-76
2023/12/28 00:47:58;;;;;;;2.77;1.90;;;;;;;5.61;86.73;152802.72;4985158;28;20457;-76
2023/12/28 00:50:27;;;;;;;2.40;2.00;;;;;;;5.59;88.03;152796.25;5009523;28;20457;-76
2023/12/28 00:52:55;;;;;;;3.70;2.17;;;;;;;5.57;85.15;152792.38;4995484;28;20512;-76
2023/12/28 00:55:21;;;;;;;3.43;2.27;;;;;;;5.60;84.01;152798.81;5010890;28;20457;-76
2023/12/28 00:57:48;;;;;;;2.00;1.80;;;;;;;5.60;82.84;152800.09;5008024;28;20522;-76
2023/12/28 01:00:15;;;;;;;2.80;1.80;;;;;;;5.62;84.64;152803.97;4985197;28;20453;-76
2023/12/28 01:02:43;;;;;;;2.60;1.97;;;;;;;5.63;83.56;152807.84;4988054;28;20507;-77
2023/12/28 01:05:09;;;;;;;2.00;1.80;;;;;;;5.65;82.49;152811.69;4996791;28;20884;-76
2023/12/28 01:07:36;;;;;;;3.40;2.43;;;;;;;5.71;82.43;152828.47;5015971;28;20457;-76
2023/12/28 01:10:05;;;;;;;2.23;1.80;;;;;;;5.71;84.36;152828.47;5011316;28;20486;-77
2023/12/28 01:12:31;;;;;;;3.80;2.20;;;;;;;5.70;83.75;152825.88;5006821;28;20460;-77
2023/12/28 01:14:59;;;;;;;3.47;2.20;;;;;;;5.71;85.40;152828.47;5000923;28;20471;-76
2023/12/28 01:17:25;;;;;;;2.33;2.00;;;;;;;5.66;86.34;152815.59;5000713;28;20473;-76
2023/12/28 01:19:52;;;;;;;2.97;2.03;;;;;;;5.66;84.76;152814.28;4998054;28;20464;-76
2023/12/28 01:22:18;;;;;;;3.93;1.90;;;;;;;5.65;83.97;152813.00;5009728;28;20459;-77
2023/12/28 01:24:49;;;;;;;2.70;2.27;;;;;;;5.67;83.21;152816.84;5023436;28;20799;-76
2023/12/28 01:27:17;;;;;;;2.83;1.70;;;;;;;5.68;81.90;152820.75;5023356;28;20456;-76
2023/12/28 01:29:43;;;;;;;2.70;1.90;;;;;;;5.71;83.84;152827.19;5003258;28;20464;-76
2023/12/28 01:32:10;;;;;;;2.10;1.60;;;;;;;5.65;84.43;152813.00;4993903;28;20923;-76
2023/12/28 01:34:38;;;;;;;3.37;2.63;;;;;;;5.65;85.04;152813.00;4965946;28;20472;-76
2023/12/28 01:37:04;;;;;;;2.43;2.17;;;;;;;5.65;84.43;152811.69;5021802;28;20800;-76
2023/12/28 01:39:32;;;;;;;2.40;2.13;;;;;;;5.64;86.09;152810.41;5010006;28;20456;-76
2023/12/28 01:41:58;;;;;;;2.53;1.93;;;;;;;5.62;85.82;152805.25;5007561;28;20464;-77
2023/12/28 01:44:27;;;;;;;2.83;2.17;;;;;;;5.65;83.40;152813.00;5002248;28;20542;-76
2023/12/28 01:46:53;;;;;;;2.67;2.10;;;;;;;5.69;82.93;152822.03;5021978;28;20439;-76
2023/12/28 01:49:20;;;;;;;3.10;2.03;;;;;;;5.68;84.66;152820.75;5014045;28;20518;-76
2023/12/28 01:51:46;;;;;;;4.10;2.33;;;;;;;5.65;86.35;152813.00;5022201;28;20457;-76
2023/12/28 01:54:13;;;;;;;2.80;2.00;;;;;;;5.59;85.83;152797.50;4997203;28;20497;-76
2023/12/28 01:56:40;;;;;;;3.23;1.97;;;;;;;5.59;84.61;152797.50;5018052;28;20555;-76
2023/12/28 01:59:07;;;;;;;3.53;1.93;;;;;;;5.61;84.85;152802.72;4998664;28;21002;-76
2023/12/28 02:01:35;;;;;;;3.17;1.90;;;;;;;5.61;83.33;152801.41;5000329;28;20456;-76
2023/12/28 02:04:02;;;;;;;4.30;2.50;;;;;;;5.64;85.63;152810.41;4983378;28;20471;-76
2023/12/28 02:06:29;;;;;;;3.13;1.97;;;;;;;5.61;86.08;152801.41;4983198;28;20453;-77
2023/12/28 02:08:55;;;;;;;3.23;2.60;;;;;;;5.59;84.09;152797.50;4986649;28;20527;-76
2023/12/28 02:11:22;;;;;;;2.80;2.10;;;;;;;5.58;84.51;152794.97;4991562;28;20456;-76
2023/12/28 02:13:49;;;;;;;3.23;2.40;;;;;;;5.59;83.67;152797.50;4975416;28;20491;-76
2023/12/28 02:16:20;;;;;;;4.47;2.30;;;;;;;5.60;84.34;152800.09;4983098;28;20448;-77
2023/12/28 02:18:51;;;;;;;1.97;1.77;;;;;;;5.59;83.98;152797.50;4987222;28;20467;-76
2023/12/28 02:21:18;;;;;;;2.50;2.07;;;;;;;5.58;87.33;152793.66;4990740;28;20455;-77
2023/12/28 02:23:48;;;;;;;2.50;1.97;;;;;;;5.53;85.78;152782.06;4993543;28;20449;-76
2023/12/28 02:26:16;;;;;;;2.37;2.10;;;;;;;5.55;87.07;152787.22;4994204;28;20453;-76
2023/12/28 02:28:42;;;;;;;3.50;2.23;;;;;;;5.51;85.11;152776.88;5013387;28;20464;-76
2023/12/28 02:31:10;;;;;;;3.00;2.07;;;;;;;5.49;86.79;152771.72;4993835;28;20497;-76
2023/12/28 02:33:42;;;;;;;3.73;2.10;;;;;;;5.47;88.20;152767.88;4985375;28;20483;-76
2023/12/28 02:36:11;;;;;;;3.60;1.60;;;;;;;5.44;91.06;152758.84;5003816;28;23104;-76
2023/12/28 02:38:39;;;;;;;2.47;1.90;;;;;;;5.37;88.28;152740.81;5005281;28;20465;-76
2023/12/28 02:41:05;;;;;;;3.87;1.90;;;;;;;5.37;88.82;152742.09;5004102;28;20459;-76
2023/12/28 02:43:35;;;;;;;2.83;2.07;;;;;;;5.35;90.92;152736.91;5011201;28;20483;-75
2023/12/28 02:46:01;;;;;;;2.87;2.10;;;;;;;5.34;91.92;152733.06;5007652;28;20448;-76
2023/12/28 02:48:28;;;;;;;2.50;1.93;;;;;;;5.27;90.77;152715.03;5008500;28;20662;-76
2023/12/28 02:50:54;;;;;;;2.30;2.00;;;;;;;5.24;90.34;152707.28;5004327;28;20430;-76
2023/12/28 02:53:21;;;;;;;4.13;1.90;;;;;;;5.26;90.11;152712.44;5004000;28;20480;-75
2023/12/28 02:55:48;;;;;;;3.10;2.20;;;;;;;5.27;91.41;152716.28;5011665;28;20456;-77
2023/12/28 02:58:14;;;;;;;2.00;1.80;;;;;;;5.25;93.19;152711.13;5010172;28;20878;-76
2023/12/28 03:00:42;;;;;;;2.60;2.17;;;;;;;5.25;94.56;152709.84;5002019;28;20460;-75
2023/12/28 03:03:08;;;;;;;2.43;2.00;;;;;;;5.20;95.56;152696.94;4968059;28;20848;-76
2023/12/28 03:05:35;;;;;;;3.73;1.93;;;;;;;5.15;95.46;152685.38;4999129;28;20452;-76
2023/12/28 03:08:02;;;;;;;3.47;2.10;;;;;;;5.16;95.21;152686.66;5023149;28;20460;-76
2023/12/28 03:10:28;;;;;;;2.17;1.87;;;;;;;5.16;90.94;152686.66;4983847;28;20538;-76
2023/12/28 03:12:55;;;;;;;2.77;2.27;;;;;;;5.22;91.89;152703.41;5018158;28;20464;-75
2023/12/28 03:15:21;;;;;;;3.73;1.93;;;;;;;5.22;93.59;152702.09;5014375;28;20445;-76
2023/12/28 03:17:51;;;;;;;2.63;1.60;;;;;;;5.20;94.12;152696.94;4990790;28;20451;-76
2023/12/28 03:20:18;;;;;;;1.70;1.50;;;;;;;5.21;93.00;152699.56;4970368;28;20459;-76
2023/12/28 03:22:44;;;;;;;2.37;1.70;;;;;;;5.23;93.41;152704.69;5001991;28;20466;-76
2023/12/28 03:25:11;;;;;;;2.23;2.03;;;;;;;5.22;91.16;152702.09;5022489;28;20445;-75
2023/12/28 03:27:37;;;;;;;3.47;1.80;;;;;;;5.26;91.70;152713.75;5008175;28;20460;-76
2023/12/28 03:30:04;;;;;;;2.47;1.70;;;;;;;5.25;93.81;152709.84;4988495;28;20487;-75
2023/12/28 03:32:31;;;;;;;3.00;2.03;;;;;;;5.26;91.59;152712.44;5000474;28;20599;-76
2023/12/28 03:34:59;;;;;;;3.27;1.80;;;;;;;5.27;91.09;152716.28;5005803;28;20864;-75
2023/12/28 03:37:26;;;;;;;2.70;2.03;;;;;;;5.31;92.16;152726.63;5000065;28;21610;-75
2023/12/28 03:39:53;;;;;;;2.67;2.03;;;;;;;5.31;92.00;152725.31;5004436;28;20452;-75
2023/12/28 03:42:21;;;;;;;2.53;1.87;;;;;;;5.30;90.37;152724.03;4970092;28;20476;-77
2023/12/28 03:44:48;;;;;;;2.73;1.80;;;;;;;5.32;92.07;152729.16;4985713;28;20438;-76
2023/12/28 03:47:14;;;;;;;2.37;1.87;;;;;;;5.36;89.00;152739.50;4998164;28;20456;-76
2023/12/28 03:49:42;;;;;;;2.07;1.73;;;;;;;5.39;89.56;152747.25;5007368;28;20453;-76
2023/12/28 03:52:10;;;;;;;2.80;1.50;;;;;;;5.39;87.55;152745.94;5006072;28;20449;-78
2023/12/28 03:54:36;;;;;;;2.27;1.70;;;;;;;5.42;87.93;152753.69;4990791;28;20495;-77
2023/12/28 03:57:03;;;;;;;2.20;1.77;;;;;;;5.43;87.38;152756.25;5012758;28;20460;-78
2023/12/28 03:59:30;;;;;;;2.00;1.80;;;;;;;5.46;85.95;152764.00;4989606;28;20457;-77
2023/12/28 04:01:56;;;;;;;1.80;1.53;;;;;;;5.52;86.82;152779.47;4997108;28;20816;-77
2023/12/28 04:04:23;;;;;;;1.93;1.57;;;;;;;5.54;86.95;152784.63;5010179;28;20468;-74
2023/12/28 04:06:49;;;;;;;3.30;2.10;;;;;;;5.62;85.43;152805.25;4987536;28;20825;-78
2023/12/28 04:09:17;;;;;;;4.50;2.03;;;;;;;5.68;84.67;152819.44;4991426;28;20464;-76
2023/12/28 04:11:44;;;;;;;2.83;1.60;;;;;;;5.72;85.45;152831.03;4990523;28;20450;-76
2023/12/28 04:14:11;;;;;;;1.77;1.63;;;;;;;5.68;86.32;152820.75;4981870;28;20484;-76
2023/12/28 04:16:37;;;;;;;2.70;1.80;;;;;;;5.70;84.96;152825.88;4987495;28;20456;-76
2023/12/28 04:19:04;;;;;;;3.00;1.97;;;;;;;5.77;83.69;152843.94;4997092;28;21068;-77
2023/12/28 04:21:30;;;;;;;2.10;1.87;;;;;;;5.80;85.22;152851.66;4979248;28;20551;-76
2023/12/28 04:23:57;;;;;;;1.93;1.73;;;;;;;5.83;85.59;152858.13;4998276;28;20451;-76
2023/12/28 04:26:25;;;;;;;2.43;1.70;;;;;;;5.82;83.22;152856.88;5002832;28;20519;-76
2023/12/28 04:28:51;;;;;;;2.80;2.03;;;;;;;5.88;83.43;152871.06;4965221;28;20450;-76
2023/12/28 04:31:18;;;;;;;2.47;1.90;;;;;;;5.93;82.43;152885.25;4991568;28;20454;-76
2023/12/28 04:33:45;;;;;;;3.33;1.70;;;;;;;5.94;84.45;152887.84;4971275;28;20481;-76
2023/12/28 04:36:12;;;;;;;3.17;1.70;;;;;;;5.99;82.80;152900.75;4973992;28;20473;-76
2023/12/28 04:38:39;;;;;;;2.00;1.70;;;;;;;5.96;84.18;152891.69;4981628;28;20444;-76
2023/12/28 04:41:06;;;;;;;2.60;1.60;;;;;;;6.07;80.92;152921.38;4992613;28;20465;-76
2023/12/28 04:43:34;;;;;;;2.10;1.90;;;;;;;6.14;79.71;152939.44;4982901;28;20588;-76
2023/12/28 04:46:03;;;;;;;2.23;1.70;;;;;;;6.32;80.25;152983.31;4986673;28;20450;-76
2023/12/28 04:48:30;;;;;;;2.53;2.10;;;;;;;6.32;81.96;152983.31;5009783;28;20460;-75
2023/12/28 04:50:56;;;;;;;1.90;1.50;;;;;;;6.32;82.20;152983.31;5002570;28;20449;-76
2023/12/28 04:53:24;;;;;;;1.77;1.67;;;;;;;6.33;79.75;152987.16;4992473;28;20463;-76
2023/12/28 04:55:51;;;;;;;2.63;2.10;;;;;;;6.39;80.22;153001.38;4992811;28;20453;-76
2023/12/28 04:58:17;;;;;;;2.13;1.47;;;;;;;6.48;79.15;153024.63;5002697;28;20468;-76
2023/12/28 05:00:47;;;;;;;2.03;1.60;;;;;;;6.57;79.01;153049.13;4994864;28;20449;-76
2023/12/28 05:03:14;;;;;;;2.47;1.80;;;;;;;6.58;79.68;153050.41;5000654;28;21057;-76
2023/12/28 05:05:41;;;;;;;2.67;1.70;;;;;;;6.56;80.86;153046.56;5012934;28;20456;-76
2023/12/28 05:08:08;;;;;;;2.23;1.90;;;;;;;6.53;80.80;153037.50;5010807;28;20519;-76
2023/12/28 05:10:35;;;;;;;2.53;1.87;;;;;;;6.52;81.41;153034.91;4992034;28;20452;-83
2023/12/28 05:13:01;;;;;;;2.77;1.93;;;;;;;6.58;79.67;153050.41;4994729;28;20458;-84
2023/12/28 05:15:28;;;;;;;1.70;1.47;;;;;;;6.61;79.41;153058.16;4992681;28;20492;-84
2023/12/28 05:17:56;;;;;;;2.80;1.47;;;;;;;6.65;80.44;153068.47;5005089;28;20449;-84
2023/12/28 05:20:22;;;;;;;2.30;1.57;;;;;;;6.60;81.63;153055.56;5005124;28;20459;-84
2023/12/28 05:22:49;;;;;;;2.97;1.80;;;;;;;6.53;83.06;153037.50;4998628;28;20464;-84
2023/12/28 05:25:16;;;;;;;3.90;2.00;;;;;;;6.52;81.09;153034.91;5009915;28;20461;-84
2023/12/28 05:27:43;;;;;;;2.00;1.80;;;;;;;6.57;81.46;153049.13;4981601;28;20466;-84
2023/12/28 05:30:10;;;;;;;2.87;1.77;;;;;;;6.59;82.45;153053.00;5002659;28;20495;-84
2023/12/28 05:32:37;;;;;;;2.20;1.60;;;;;;;6.57;80.91;153047.81;5001552;28;20457;-84
2023/12/28 05:35:06;;;;;;;3.60;1.43;;;;;;;6.59;81.59;153053.00;5004416;28;20476;-84
2023/12/28 05:37:32;;;;;;;2.10;1.50;;;;;;;6.63;83.78;153063.31;4990063;28;20982;-84
2023/12/28 05:39:59;;;;;;;1.97;1.57;;;;;;;6.63;82.64;153063.31;5009665;28;20461;-84
2023/12/28 05:42:25;;;;;;;2.20;1.60;;;;;;;6.69;83.90;153078.81;4999345;28;20817;-85
2023/12/28 05:44:53;;;;;;;1.90;1.40;;;;;;;6.72;84.63;153087.81;5017239;28;20754;-84
2023/12/28 05:47:19;;;;;;;1.70;1.17;;;;;;;6.75;84.18;153095.56;5012396;28;20457;-84
2023/12/28 05:49:46;;;;;;;2.13;1.80;;;;;;;6.73;85.30;153089.13;5006455;28;20459;-84
2023/12/28 05:52:15;;;;;;;2.43;1.57;;;;;;;6.73;85.29;153089.13;5010792;28;20789;-83
2023/12/28 05:54:42;;;;;;;2.50;1.57;;;;;;;6.73;84.06;153090.41;5009993;28;20476;-83
2023/12/28 05:57:09;;;;;;;2.30;1.43;;;;;;;6.80;83.16;153107.22;4991780;28;20444;-83
2023/12/28 05:59:38;;;;;;;2.37;1.80;;;;;;;6.82;85.39;153112.38;4988329;28;20457;-83
2023/12/28 06:02:05;;;;;;;2.23;1.53;;;;;;;6.81;84.79;153108.47;5009186;28;20451;-83
2023/12/28 06:04:33;;;;;;;2.20;1.57;;;;;;;6.78;85.52;153100.78;5001665;28;20508;-83
2023/12/28 06:06:59;;;;;;;2.33;1.33;;;;;;;6.75;84.65;153094.31;4999440;28;20457;-84
2023/12/28 06:09:28;;;;;;;2.50;1.70;;;;;;;6.78;84.14;153102.03;5013871;28;20461;-83
2023/12/28 06:11:54;;;;;;;2.20;1.47;;;;;;;6.81;83.95;153109.78;4980866;28;20449;-84
2023/12/28 06:14:21;;;;;;;1.97;1.43;;;;;;;6.79;83.41;153104.63;4997201;28;20541;-84
2023/12/28 06:16:48;;;;;;;1.90;1.70;;;;;;;6.81;83.97;153108.47;5014941;28;20465;-84
2023/12/28 06:19:14;;;;;;;2.17;1.80;;;;;;;6.80;85.12;153107.22;4994561;28;20469;-83
2023/12/28 06:21:42;;;;;;;1.70;1.47;;;;;;;6.84;84.45;153117.53;4977850;28;20859;-83
2023/12/28 06:24:08;;;;;;;1.97;1.50;;;;;;;6.86;87.08;153122.69;4977560;28;20472;-83
2023/12/28 06:26:41;;;;;;;2.63;1.83;;;;;;;6.81;84.99;153108.47;5013117;28;21041;-84
2023/12/28 06:29:08;;;;;;;1.80;1.23;;;;;;;6.81;83.83;153109.78;5012770;28;20452;-84
2023/12/28 06:31:36;;;;;;;1.90;1.40;;;;;;;6.82;83.91;153112.38;4996171;28;21084;-83
2023/12/28 06:34:03;;;;;;;2.17;1.60;;;;;;;6.82;84.33;153112.38;4999706;28;20514;-83
2023/12/28 06:36:29;;;;;;;1.77;1.33;;;;;;;6.83;83.69;153114.94;5009451;28;20820;-83
2023/12/28 06:38:56;;;;;;;2.50;1.70;;;;;;;6.82;84.83;153111.06;4999161;28;20829;-83
2023/12/28 06:41:22;;;;;;;1.93;1.40;;;;;;;6.85;86.01;153120.13;4998304;28;20865;-83
2023/12/28 06:43:50;;;;;;;2.90;1.80;;;;;;;6.88;84.79;153127.88;4991227;28;20487;-84
2023/12/28 06:46:17;;;;;;;2.37;2.00;;;;;;;6.89;84.94;153130.44;5010340;28;20452;-84
2023/12/28 06:48:43;;;;;;;2.60;2.17;;;;;;;6.89;84.54;153130.44;5012579;28;20453;-83
2023/12/28 06:51:10;;;;;;;1.90;1.70;;;;;;;6.89;83.36;153130.44;4981025;28;20460;-83
2023/12/28 06:53:36;;;;;;;4.70;1.60;;;;;;;6.93;84.16;153140.78;5011344;28;20472;-83
2023/12/28 06:56:03;;;;;;;2.67;2.03;;;;;;;6.96;84.04;153147.25;4984194;28;20626;-83
2023/12/28 06:58:30;;;;;;;3.90;1.90;;;;;;;6.96;84.75;153148.53;5011775;28;20558;-83
2023/12/28 07:00:58;;;;;;;2.13;1.77;;;;;;;7.00;84.57;153158.84;4997808;28;20464;-83
2023/12/28 07:03:25;;;;;;;2.83;1.80;;;;;;;7.01;88.27;153160.13;4994466;28;20983;-83
2023/12/28 07:05:52;;;;;;;2.00;1.80;;;;;;;6.99;88.93;153156.25;5010922;28;20552;-83
2023/12/28 07:08:18;;;;;;;1.83;1.37;;;;;;;6.98;87.95;153153.69;4992761;28;20461;-83
2023/12/28 07:10:45;;;;;;;2.63;1.80;;;;;;;6.99;88.48;153156.25;5005748;28;20517;-83
2023/12/28 07:13:12;;;;;;;2.10;1.90;;;;;;;7.02;88.03;153164.00;4997660;28;20559;-83
2023/12/28 07:15:38;;;;;;;2.70;1.50;;;;;;;7.03;88.14;153166.59;4998144;28;20473;-83
2023/12/28 07:18:06;;;;;;;1.60;1.40;;;;;;;7.03;87.80;153166.59;4988569;28;20465;-83
2023/12/28 07:20:33;;;;;;;2.77;1.67;;;;;;;7.02;90.43;153164.00;4986432;28;20456;-83
2023/12/28 07:22:59;;;;;;;2.30;1.83;;;;;;;7.02;89.19;153164.00;4997632;28;20539;-82
2023/12/28 07:25:26;;;;;;;1.97;1.70;;;;;;;7.04;88.97;153169.16;4998496;28;20458;-83
2023/12/28 07:27:52;;;;;;;2.03;1.60;;;;;;;7.06;87.87;153174.34;4979665;28;20464;-83
2023/12/28 07:30:19;;;;;;;2.53;1.93;;;;;;;7.08;87.92;153179.50;4999749;28;20547;-83
2023/12/28 07:32:50;;;;;;;1.93;1.57;;;;;;;7.09;87.62;153182.09;4982049;28;20528;-84
2023/12/28 07:35:21;;;;;;;1.67;1.40;;;;;;;7.09;87.76;153182.09;5005149;28;20464;-85
2023/12/28 07:37:48;;;;;;;1.80;1.40;;;;;;;7.10;87.40;153184.66;4988672;28;20538;-84
2023/12/28 07:40:15;;;;;;;2.30;1.57;;;;;;;7.13;87.37;153192.41;5002455;28;20449;-84
2023/12/28 07:42:41;;;;;;;3.70;1.90;;;;;;;7.15;87.78;153197.56;4983847;28;20437;-84
2023/12/28 07:45:08;;;;;;;3.27;2.20;;;;;;;7.15;88.68;153197.56;5015657;28;20473;-84
2023/12/28 07:47:35;;;;;;;2.23;1.53;;;;;;;7.16;87.82;153200.16;5016218;28;20443;-84
2023/12/28 07:50:02;;;;;;;2.00;1.60;;;;;;;7.17;87.89;153202.75;5014010;28;20465;-84
2023/12/28 07:52:30;;;;;;;2.27;1.70;;;;;;;7.22;87.65;153214.38;5002127;28;20469;-84
2023/12/28 07:54:56;;;;;;;4.80;1.80;;;;;;;7.24;87.69;153220.81;4970931;28;20488;-84
2023/12/28 07:57:23;;;;;;;2.10;1.67;;;;;;;7.26;87.62;153225.97;5015615;28;20478;-84
2023/12/28 07:59:50;;;;;;;3.73;2.20;;;;;;;7.27;87.82;153228.56;5003829;28;20459;-84
2023/12/28 08:02:16;;;;;;;3.67;1.67;;;;;;;7.29;87.81;153233.72;4979355;28;20491;-85
2023/12/28 08:04:43;;;;;;;2.00;1.80;;;;;;;7.32;87.63;153241.47;5002949;28;20562;-84
2023/12/28 08:07:10;;;;;;;2.20;1.90;;;;;;;7.35;87.39;153249.25;5001595;28;20453;-84
2023/12/28 08:09:37;;;;;;;2.70;1.60;;;;;;;7.34;87.51;153246.63;5004244;28;20461;-84
2023/12/28 08:12:05;;;;;;;2.33;1.40;;;;;;;7.35;88.23;153249.25;5009953;28;20456;-84
2023/12/28 08:14:31;;;;;;;3.40;2.07;;;;;;;7.35;87.95;153249.25;4992724;28;21002;-84
2023/12/28 08:16:58;;;;;;;2.17;1.83;;;;;;;7.38;87.81;153254.41;4980918;28;20472;-84
2023/12/28 08:19:24;;;;;;;3.23;2.00;;;;;;;7.41;87.70;153263.44;4990435;28;20807;-84
2023/12/28 08:21:51;;;;;;;6.00;3.07;;;;;;;7.42;87.69;153264.69;4980293;28;20506;-85
2023/12/28 08:24:17;;;;;;;2.27;1.47;;;;;;;7.42;87.61;153264.69;5002828;28;20865;-84
2023/12/28 08:26:45;;;;;;;2.27;1.67;;;;;;;7.42;88.07;153264.69;4998078;28;20458;-85
2023/12/28 08:29:12;;;;;;;1.90;1.47;;;;;;;7.41;88.58;153263.44;4997963;28;20820;-84
2023/12/28 08:31:39;;;;;;;3.30;2.40;;;;;;;7.43;88.63;153267.31;4999922;28;20457;-85
2023/12/28 08:34:05;;;;;;;4.50;2.00;;;;;;;7.43;88.93;153268.59;5001758;28;20460;-84
2023/12/28 08:36:32;;;;;;;3.83;2.23;;;;;;;7.43;88.59;153267.31;4998766;28;20468;-85
2023/12/28 08:38:58;;;;;;;2.73;2.23;;;;;;;7.45;88.70;153272.47;5014968;28;20453;-85
2023/12/28 08:41:26;;;;;;;2.73;2.23;;;;;;;7.46;88.77;153275.06;4999308;28;20534;-85
2023/12/28 08:43:54;;;;;;;3.30;2.90;;;;;;;7.46;88.97;153276.34;5006111;28;20814;-84
2023/12/28 08:46:22;;;;;;;4.80;2.67;;;;;;;7.49;89.22;153284.13;4997228;28;20500;-84
2023/12/28 08:48:49;;;;;;;3.40;2.17;;;;;;;7.50;89.15;153285.38;4979795;28;20453;-84
2023/12/28 08:51:15;;;;;;;3.40;2.60;;;;;;;7.51;89.36;153287.97;4982305;28;20448;-85
2023/12/28 08:53:42;;;;;;;4.83;2.50;;;;;;;7.52;89.67;153290.56;5001340;28;20551;-84
2023/12/28 08:56:17;;;;;;;3.30;2.40;;;;;;;7.53;89.89;153294.44;4986677;28;20516;-84
2023/12/28 08:58:43;;;;;;;3.43;2.10;;;;;;;7.56;89.92;153300.88;5005616;28;20449;-85
2023/12/28 09:01:16;;;;;;;3.73;2.60;;;;;;;7.58;90.44;153306.03;5002929;28;20467;-84
2023/12/28 09:03:43;;;;;;;2.87;2.30;;;;;;;7.60;90.77;153311.25;5003350;28;20484;-84
2023/12/28 09:06:09;;;;;;;3.20;2.17;;;;;;;7.64;92.11;153321.56;5002006;28;20460;-85
2023/12/28 09:08:36;;;;;;;2.90;2.17;;;;;;;7.66;94.02;153328.00;4994786;28;20461;-84
2023/12/28 09:11:02;;;;;;;2.27;1.80;;;;;;;7.72;95.14;153342.22;4998577;28;20810;-84
2023/12/28 09:13:29;;;;;;;2.40;1.93;;;;;;;7.74;96.44;153348.69;4998999;28;20469;-84
2023/12/28 09:15:56;;;;;;;2.90;1.80;;;;;;;7.74;97.77;153347.38;4963525;28;21045;-83
2023/12/28 09:18:24;;;;;;;2.00;1.53;;;;;;;7.76;98.07;153352.53;4980376;28;20458;-84
2023/12/28 09:20:50;;;;;;;3.87;1.83;;;;;;;7.78;96.57;153357.72;4985243;28;20542;-84
2023/12/28 09:23:17;;;;;;;2.70;1.97;;;;;;;7.81;98.22;153365.50;4967837;28;20466;-84
2023/12/28 09:25:44;;;;;;;2.57;1.80;;;;;;;7.86;98.07;153378.41;4995694;28;20540;-85
2023/12/28 09:28:11;;;;;;;2.83;1.70;;;;;;;7.89;97.82;153386.13;4999258;28;20459;-84
2023/12/28 09:30:38;;;;;;;2.43;2.00;;;;;;;7.90;97.77;153388.72;4984364;28;20475;-84
2023/12/28 09:33:05;;;;;;;2.50;1.73;;;;;;;7.95;97.55;153401.63;4998168;28;20492;-84
2023/12/28 09:35:34;;;;;;;3.70;1.83;;;;;;;8.02;98.21;153418.44;5003204;28;20476;-84
2023/12/28 09:38:00;;;;;;;2.40;1.70;;;;;;;8.02;99.52;153419.75;4982719;28;20465;-83
2023/12/28 09:40:27;;;;;;;2.30;1.70;;;;;;;8.00;99.36;153414.53;4981024;28;20462;-83
2023/12/28 09:43:01;;;;;;;2.50;2.30;;;;;;;8.01;98.38;153417.16;4997030;28;20461;-85
2023/12/28 09:45:27;;;;;;;2.50;1.80;;;;;;;8.05;97.96;153427.47;5015451;28;20470;-84
2023/12/28 09:47:54;;;;;;;3.17;2.20;;;;;;;8.08;100.00;153435.22;5015172;28;20475;-84
2023/12/28 09:50:21;;;;;;;2.47;2.00;;;;;;;8.07;100.00;153431.38;5014040;28;20452;-83
2023/12/28 09:52:50;;;;;;;2.33;1.77;;;;;;;8.08;99.12;153435.22;5000855;28;20485;-84
2023/12/28 09:55:17;;;;;;;2.53;1.97;;;;;;;8.10;97.05;153440.38;4989265;28;20450;-83
2023/12/28 09:57:45;;;;;;;2.23;1.63;;;;;;;8.17;96.09;153458.50;4977245;28;20468;-85
2023/12/28 10:00:15;;;;;;;2.83;1.87;;;;;;;8.25;96.48;153479.19;5004343;28;20441;-85
2023/12/28 10:02:45;;;;;;;3.00;2.10;;;;;;;8.25;96.91;153479.19;5017217;28;20841;-84
2023/12/28 10:05:13;;;;;;;2.63;1.93;;;;;;;8.27;95.92;153484.41;4999047;28;20855;-84
2023/12/28 10:07:43;;;;;;;2.57;1.70;;;;;;;8.30;95.77;153490.84;5013618;28;20572;-85
2023/12/28 10:10:19;;;;;;;2.73;1.70;;;;;;;8.34;96.66;153502.47;4979947;28;20464;-84
2023/12/28 10:12:56;;;;;;;3.30;1.83;;;;;;;8.31;95.05;153494.72;4992088;28;20458;-84
2023/12/28 10:15:26;;;;;;;3.87;2.10;;;;;;;8.41;94.56;153519.28;4995918;28;20463;-84
2023/12/28 10:17:52;;;;;;;2.30;1.97;;;;;;;8.43;95.55;153525.75;4980494;28;20457;-83
2023/12/28 10:20:19;;;;;;;2.20;1.90;;;;;;;8.42;94.85;153521.84;4981552;28;20458;-84
2023/12/28 10:22:46;;;;;;;4.73;1.67;;;;;;;8.45;94.01;153530.91;4994525;28;21123;-84
2023/12/28 10:25:14;;;;;;;2.40;1.70;;;;;;;8.51;97.08;153545.13;4999700;28;20526;-85
2023/12/28 10:27:42;;;;;;;1.70;1.60;;;;;;;8.48;96.79;153537.38;5012129;28;20469;-84
2023/12/28 10:30:16;;;;;;;2.77;2.00;;;;;;;8.46;96.75;153533.53;4995673;28;21049;-77
2023/12/28 10:32:43;;;;;;;3.27;1.87;;;;;;;8.51;97.58;153545.13;4979982;28;20482;-77
2023/12/28 10:35:10;;;;;;;2.40;2.17;;;;;;;8.51;98.40;153546.44;4981192;28;20485;-77
2023/12/28 10:37:37;;;;;;;2.20;1.70;;;;;;;8.51;97.26;153545.13;4981763;28;20484;-77
2023/12/28 10:40:06;;;;;;;6.20;3.10;;;;;;;8.56;97.73;153559.38;4997325;28;20452;-77
2023/12/28 10:42:38;;;;;;;5.30;3.93;;;;;;;8.55;99.93;153556.75;5001121;28;20548;-77
2023/12/28 10:45:06;;;;;;;5.60;3.80;;;;;;;8.53;98.37;153550.28;5019160;28;20463;-77
2023/12/28 10:47:35;;;;;;;4.47;2.93;;;;;;;8.53;97.38;153550.28;4981670;28;20461;-77
2023/12/28 10:50:04;;;;;;;2.97;2.13;;;;;;;8.57;99.53;153561.97;4999222;28;20548;-77
2023/12/28 10:52:33;;;;;;;2.67;1.60;;;;;;;8.58;100.00;153564.53;4987448;28;20961;-77
2023/12/28 10:55:18;;;;;;;2.07;1.60;;;;;;;8.58;100.00;153563.22;4995954;28;20452;-77
2023/12/28 10:57:55;;;;;;;1.53;1.33;;;;;;;8.64;100.00;153577.44;4998682;28;20452;-77
2023/12/28 11:00:24;;;;;;;2.73;1.43;;;;;;;8.66;100.00;153582.66;5015449;28;21086;-77
2023/12/28 11:02:53;;;;;;;2.23;2.00;;;;;;;8.69;99.43;153590.38;4983011;28;20977;-77
2023/12/28 11:05:20;;;;;;;3.20;2.47;;;;;;;8.75;99.27;153607.19;4990824;28;20449;-77
2023/12/28 11:07:48;;;;;;;3.47;1.90;;;;;;;8.79;100.00;153617.50;5016773;28;20457;-77
2023/12/28 11:10:15;;;;;;;3.50;1.80;;;;;;;8.79;99.91;153616.25;4979992;28;21341;-77
2023/12/28 11:12:42;;;;;;;2.50;1.70;;;;;;;8.82;100.00;153623.97;4995779;28;20456;-77
2023/12/28 11:15:11;;;;;;;2.10;1.33;;;;;;;8.79;100.00;153616.25;4995171;28;20548;-77
2023/12/28 11:17:38;;;;;;;3.10;1.67;;;;;;;8.78;100.00;153614.97;5008299;28;20567;-77
2023/12/28 11:20:06;;;;;;;2.10;1.90;;;;;;;8.79;100.00;153617.50;4979409;28;20548;-77
2023/12/28 11:22:34;;;;;;;1.97;1.70;;;;;;;8.86;100.00;153634.34;4967738;28;20954;-77
2023/12/28 11:25:00;;;;;;;2.03;1.50;;;;;;;8.90;100.00;153645.97;4994780;28;20448;-77
2023/12/28 11:27:34;;;;;;;1.90;1.30;;;;;;;8.89;100.00;153643.41;5013528;28;20457;-77
2023/12/28 11:30:01;;;;;;;1.70;1.30;;;;;;;8.92;100.00;153649.88;5011314;28;20460;-77
2023/12/28 11:32:29;;;;;;;2.30;1.60;;;;;;;8.92;100.00;153651.13;4997205;28;20999;-77
2023/12/28 11:34:58;;;;;;;1.93;1.77;;;;;;;8.90;100.00;153644.66;4994529;28;20507;-77